Presidio of Monterey, California
Current Conditions -  °F | °C
As of 3:54 PM on Friday 24 Oct 2014 (Local Time) from KMRY Reporting Station
Clear Clear  
Wind Chill: 66°   Ceiling: Unl
Heat Index: 66°   Visibility: 10mi
Dew Point: 56°   Wind: 14mph
Humidity: 70%   Direction: 210°SSW
Pressure: 29.93"   Gusts: 18mph
Location:  36.5816°N, 121.843°W
Report Text: KMRY 242254Z 21012G16KT 10SM CLR 19/13 A2993 RMK AO2 SLP146 T01890133
Loading
Personal Weather Stations






























Interactive Weather Map
Tropical Storm Tracking
New forecast layout! Learn more

10-Day Weather Forecast

Advertisements
Track Severe Weather on mobile